createdAt,value
2022-07-29T00:00:02.113Z,15.07
2022-07-29T00:05:06.716Z,15.08
2022-07-29T00:10:08.849Z,14.87
2022-07-29T00:15:10.732Z,15.02
2022-07-29T00:20:12.587Z,14.79
2022-07-29T00:25:14.590Z,14.66
2022-07-29T00:30:16.702Z,14.61
2022-07-29T00:35:36.726Z,14.58
2022-07-29T00:40:38.512Z,14.31
2022-07-29T00:45:45.505Z,14.17
2022-07-29T00:50:47.449Z,14.09
2022-07-29T00:55:49.193Z,13.99
2022-07-29T01:00:51.327Z,13.92
2022-07-29T01:05:54.174Z,14.27
2022-07-29T01:10:56.315Z,14.26
2022-07-29T01:16:10.834Z,14.01
2022-07-29T01:21:42.406Z,13.93
2022-07-29T01:26:48.021Z,13.84
2022-07-29T01:31:59.839Z,13.85
2022-07-29T01:37:24.927Z,13.87
2022-07-29T01:42:49.613Z,13.83
2022-07-29T01:48:01.157Z,13.80
2022-07-29T01:53:06.348Z,13.87
2022-07-29T01:58:09.575Z,13.64
2022-07-29T02:03:14.030Z,14.08
2022-07-29T02:08:17.918Z,14.05
2022-07-29T02:13:21.607Z,14.14
2022-07-29T02:18:26.185Z,14.01
2022-07-29T02:23:28.786Z,14.04
2022-07-29T02:28:31.931Z,14.12
2022-07-29T02:33:34.605Z,13.93
2022-07-29T02:38:58.477Z,14.19
2022-07-29T02:44:10.364Z,13.74
2022-07-29T02:49:25.134Z,14.04
2022-07-29T02:54:43.330Z,14.14
2022-07-29T02:59:48.965Z,14.01
2022-07-29T03:04:52.530Z,13.81
2022-07-29T03:09:55.214Z,13.74
2022-07-29T03:14:58.686Z,14.10
2022-07-29T03:20:00.826Z,14.10
2022-07-29T03:25:09.719Z,13.98
2022-07-29T03:30:12.713Z,14.17
2022-07-29T03:35:21.382Z,13.95
2022-07-29T03:40:43.900Z,14.17
2022-07-29T03:45:48.792Z,13.95
2022-07-29T03:50:51.669Z,14.14
2022-07-29T03:56:00.204Z,14.23
2022-07-29T04:01:02.078Z,14.16
2022-07-29T04:06:09.221Z,14.35
2022-07-29T04:11:10.899Z,14.25
2022-07-29T04:16:12.570Z,14.36
2022-07-29T04:21:14.281Z,14.44
2022-07-29T04:26:16.057Z,14.60
2022-07-29T04:31:21.189Z,14.83
2022-07-29T04:36:29.167Z,15.03
2022-07-29T04:41:33.139Z,15.47
2022-07-29T04:46:36.641Z,15.57
2022-07-29T04:51:38.911Z,15.59
2022-07-29T04:56:40.615Z,15.77
2022-07-29T05:01:42.278Z,16.16
2022-07-29T05:06:44.636Z,16.91
2022-07-29T05:11:46.338Z,16.92
2022-07-29T05:16:48.069Z,16.42
2022-07-29T05:21:49.768Z,17.10
2022-07-29T05:26:51.428Z,17.30
2022-07-29T05:31:54.019Z,17.20
2022-07-29T05:36:55.689Z,17.58
2022-07-29T05:41:57.469Z,17.79
2022-07-29T05:46:59.109Z,17.36
2022-07-29T05:52:00.770Z,17.22
2022-07-29T05:57:02.756Z,18.02
2022-07-29T06:02:06.216Z,18.50
2022-07-29T06:07:08.384Z,18.62
2022-07-29T06:12:10.557Z,18.79
2022-07-29T06:17:12.800Z,18.94
2022-07-29T06:22:17.628Z,18.52
2022-07-29T06:27:19.261Z,18.98
2022-07-29T06:32:22.899Z,19.32
2022-07-29T06:37:29.145Z,19.72
2022-07-29T06:42:33.762Z,20.05
2022-07-29T06:47:35.399Z,19.79
2022-07-29T06:52:37.986Z,20.16
2022-07-29T06:57:39.619Z,20.62
2022-07-29T07:02:41.299Z,21.39
2022-07-29T07:07:42.973Z,20.80
2022-07-29T07:12:44.688Z,21.82
2022-07-29T07:17:46.318Z,22.26
2022-07-29T07:22:47.957Z,22.44
2022-07-29T07:27:49.688Z,22.50
2022-07-29T07:32:51.417Z,22.68
2022-07-29T07:37:53.049Z,22.81
2022-07-29T07:42:54.817Z,23.30
2022-07-29T07:47:56.481Z,24.31
2022-07-29T07:52:59.378Z,24.82
2022-07-29T07:58:01.008Z,24.95
2022-07-29T08:03:03.501Z,24.66
2022-07-29T08:08:18.821Z,24.78
2022-07-29T08:13:22.197Z,26.65
2022-07-29T08:18:25.603Z,27.79
2022-07-29T08:23:32.959Z,28.14
2022-07-29T08:28:51.416Z,28.24
2022-07-29T08:33:53.352Z,29.59
2022-07-29T08:38:55.150Z,29.74
2022-07-29T08:43:57.099Z,27.31
2022-07-29T08:48:58.802Z,28.19
2022-07-29T08:54:01.448Z,30.27
2022-07-29T08:59:06.963Z,29.77
2022-07-29T09:04:12.841Z,29.72
2022-07-29T09:09:15.279Z,29.58
2022-07-29T09:14:16.978Z,29.10
2022-07-29T09:19:26.025Z,29.60
2022-07-29T09:24:45.239Z,27.84
2022-07-29T09:29:47.306Z,28.44
2022-07-29T09:34:48.990Z,28.49
2022-07-29T09:39:51.184Z,30.18
2022-07-29T09:44:52.852Z,29.57
2022-07-29T09:49:59.381Z,30.07
2022-07-29T09:55:09.162Z,31.58
2022-07-29T10:00:17.034Z,35.13
2022-07-29T10:05:21.615Z,36.11
2022-07-29T10:10:24.861Z,37.91
2022-07-29T10:15:29.540Z,37.43
2022-07-29T10:20:31.712Z,37.02
2022-07-29T10:25:33.435Z,33.49
2022-07-29T10:30:35.491Z,29.96
2022-07-29T10:35:43.211Z,33.07
2022-07-29T10:41:36.275Z,31.52
2022-07-29T10:46:46.345Z,31.49
2022-07-29T10:52:10.413Z,30.12
2022-07-29T10:57:53.057Z,30.34
2022-07-29T11:02:56.484Z,32.98
2022-07-29T11:08:20.488Z,34.14
2022-07-29T11:14:03.572Z,35.31
2022-07-29T11:19:14.592Z,33.65
2022-07-29T11:24:35.236Z,34.85
2022-07-29T11:29:41.745Z,34.56
2022-07-29T11:34:45.301Z,35.46
2022-07-29T11:39:53.712Z,33.96
2022-07-29T11:44:55.304Z,31.47
2022-07-29T11:49:59.947Z,32.72
2022-07-29T11:55:09.937Z,30.96
2022-07-29T12:00:14.563Z,29.69
2022-07-29T12:05:36.019Z,29.59
2022-07-29T12:10:39.732Z,31.41
2022-07-29T12:15:47.175Z,32.71
2022-07-29T12:20:49.717Z,32.42
2022-07-29T12:25:51.525Z,32.22
2022-07-29T12:30:55.673Z,30.83
2022-07-29T12:36:07.177Z,30.10
2022-07-29T12:41:09.932Z,29.72
2022-07-29T12:46:15.971Z,29.42
2022-07-29T12:51:17.978Z,29.30
2022-07-29T12:56:41.722Z,30.54
2022-07-29T13:01:42.191Z,30.22
2022-07-29T13:06:51.075Z,29.67
2022-07-29T13:11:54.193Z,30.61
2022-07-29T13:17:16.773Z,31.07
2022-07-29T13:22:20.509Z,29.72
2022-07-29T13:27:27.148Z,30.22
2022-07-29T13:32:31.210Z,29.55
2022-07-29T13:37:35.284Z,29.90
2022-07-29T13:42:37.385Z,30.22
2022-07-29T13:47:39.352Z,30.32
2022-07-29T13:52:41.021Z,30.34
2022-07-29T13:57:42.697Z,31.00
2022-07-29T14:02:44.452Z,31.00
2022-07-29T14:07:46.188Z,31.75
2022-07-29T14:12:47.835Z,32.07
2022-07-29T14:17:49.483Z,31.55
2022-07-29T14:22:51.173Z,31.12
2022-07-29T14:27:54.195Z,30.74
2022-07-29T14:32:55.824Z,29.74
2022-07-29T14:37:58.216Z,29.25
2022-07-29T14:42:59.861Z,29.48
2022-07-29T14:48:01.673Z,29.86
2022-07-29T14:53:03.864Z,31.00
2022-07-29T14:58:10.942Z,31.38
2022-07-29T15:03:22.944Z,30.73
2022-07-29T15:08:26.388Z,30.22
2022-07-29T15:13:28.069Z,30.43
2022-07-29T15:18:29.701Z,30.43
2022-07-29T15:23:31.337Z,29.81
2022-07-29T15:28:32.979Z,29.04
2022-07-29T15:33:34.631Z,28.67
2022-07-29T15:38:41.892Z,28.52
2022-07-29T15:43:50.305Z,28.28
2022-07-29T15:48:52.007Z,28.08
2022-07-29T15:53:53.882Z,28.00
2022-07-29T15:58:55.675Z,28.20
2022-07-29T16:03:58.408Z,28.29
2022-07-29T16:09:00.624Z,28.41
2022-07-29T16:14:02.388Z,28.15
2022-07-29T16:19:04.899Z,28.10
2022-07-29T16:24:07.151Z,28.16
2022-07-29T16:29:08.828Z,27.95
2022-07-29T16:34:10.459Z,27.82
2022-07-29T16:39:12.806Z,27.50
2022-07-29T16:44:14.515Z,27.33
2022-07-29T16:49:19.351Z,26.82
2022-07-29T16:54:21.304Z,26.56
2022-07-29T16:59:23.024Z,26.59
2022-07-29T17:04:24.687Z,26.69
2022-07-29T17:09:26.443Z,26.80
2022-07-29T17:14:31.125Z,26.59
2022-07-29T17:19:35.452Z,26.83
2022-07-29T17:24:37.291Z,26.63
2022-07-29T17:29:40.257Z,26.29
2022-07-29T17:34:43.035Z,26.11
2022-07-29T17:39:44.948Z,26.25
2022-07-29T17:44:46.596Z,26.12
2022-07-29T17:49:48.253Z,26.09
2022-07-29T17:54:49.984Z,25.93
2022-07-29T17:59:51.734Z,25.66
2022-07-29T18:04:53.377Z,25.37
2022-07-29T18:10:00.019Z,25.40
2022-07-29T18:15:02.162Z,25.11
2022-07-29T18:20:04.815Z,24.92
2022-07-29T18:25:07.683Z,24.68
2022-07-29T18:30:09.549Z,24.50
2022-07-29T18:35:11.237Z,24.56
2022-07-29T18:40:13.144Z,24.24
2022-07-29T18:45:19.261Z,24.02
2022-07-29T18:50:26.946Z,23.83
2022-07-29T18:55:30.789Z,23.54
2022-07-29T19:00:32.426Z,23.39
2022-07-29T19:05:34.136Z,23.34
2022-07-29T19:10:35.770Z,23.32
2022-07-29T19:15:37.518Z,23.43
2022-07-29T19:20:39.969Z,23.40
2022-07-29T19:25:48.201Z,23.48
2022-07-29T19:30:55.765Z,23.30
2022-07-29T19:35:57.755Z,23.22
2022-07-29T19:40:59.450Z,23.30
2022-07-29T19:46:01.187Z,23.40
2022-07-29T19:51:03.115Z,23.36
2022-07-29T19:56:05.261Z,23.12
2022-07-29T20:01:11.420Z,22.88
2022-07-29T20:06:13.295Z,22.93
2022-07-29T20:11:14.968Z,22.88
2022-07-29T20:16:16.858Z,22.79
2022-07-29T20:21:18.567Z,22.63
2022-07-29T20:26:20.218Z,22.47
2022-07-29T20:31:22.273Z,22.32
2022-07-29T20:36:24.102Z,22.19
2022-07-29T20:41:26.329Z,21.91
2022-07-29T20:46:28.104Z,22.00
2022-07-29T20:51:29.779Z,21.83
2022-07-29T20:56:31.439Z,21.36
2022-07-29T21:01:33.168Z,21.55
2022-07-29T21:06:35.054Z,21.55
2022-07-29T21:11:44.692Z,21.18
2022-07-29T21:16:46.752Z,20.98
2022-07-29T21:21:48.408Z,20.90
2022-07-29T21:27:10.967Z,21.03
2022-07-29T21:32:11.745Z,20.96
2022-07-29T21:37:13.417Z,21.01
2022-07-29T21:42:15.155Z,20.78
2022-07-29T21:47:16.794Z,20.92
2022-07-29T21:52:18.899Z,20.84
2022-07-29T21:57:20.566Z,20.90
2022-07-29T22:02:22.214Z,20.67
2022-07-29T22:07:23.843Z,20.86
2022-07-29T22:12:25.480Z,20.91
2022-07-29T22:17:27.178Z,20.97
2022-07-29T22:22:28.903Z,20.96
2022-07-29T22:27:30.709Z,20.77
2022-07-29T22:32:34.155Z,20.75
2022-07-29T22:37:35.841Z,20.82
2022-07-29T22:42:40.708Z,20.62
2022-07-29T22:47:48.040Z,20.47
2022-07-29T22:52:50.193Z,20.45
2022-07-29T22:57:51.848Z,20.68
2022-07-29T23:02:53.528Z,20.53
2022-07-29T23:07:55.207Z,20.53
2022-07-29T23:12:56.916Z,20.63
2022-07-29T23:17:59.459Z,20.22
2022-07-29T23:23:01.143Z,20.44
2022-07-29T23:28:03.575Z,20.67
2022-07-29T23:33:05.272Z,20.86
2022-07-29T23:38:06.939Z,21.14
2022-07-29T23:43:09.090Z,21.13
2022-07-29T23:48:10.805Z,21.01
2022-07-29T23:53:12.773Z,21.03
2022-07-29T23:58:14.513Z,20.83
